Terminal Aerodrome Forecast
Issued by NWS

Home | Current Version | Previous Version | Graphics & Text | Print | Product List | Glossary On
Versions: 1 2 3 4 5 6 7 8 9 10 11 12 13 14
000
FTUS45 KVEF 271120
TAFDAG
TAF
KDAG 271120Z 2712/2812 27008KT P6SM FEW120
     FM271900 02007KT P6SM FEW120
     FM280300 24012KT P6SM SKC
     FM280800 27008KT P6SM SKC=

USA.gov is the U.S. government's official web portal to all federal, state and local government web resources and services.